Tijuana, México

6:22 PM PDT en Abril 20, 2015 (GMT -0700)
Proteccion Civil-Oficinas Centrales-CMOE | | Change Station
CLOSE
Current Station
Estación meteorológica personal
Location: TIJUANA, BAJA CALIFORNIA
Altura: 396 ft
Estaciones meteorológicas cercanas

Alt 396 ft 32.53 °N, 116.99 °W | Updated 5 minutes ago

Mostly Cloudy
Muy nublado
60.3 ° F
Sensación térmica 60.3 ° F
N
6.0
Viento Variable Viento desde SO

Hoy
Alta -- | Baja -- ° F
--% Posibilidad de precipitaciones
Ayer
Alta -- | Baja -- ° F
Precip. -- pul
6:12 AM 7:21 PM
Creciente, 7% visible
Presión 29.86 pul
Visibilidad 10.0 Millas
Nubes Muy nublado 2200 ft
Punto de rocío 52 ° F
Humedad 75%
Precipitaciones 0.00 pul
Espesor de la nieve No disponible.
UV 1 de una escala de 12
Polen No disponible.
Calidad del aire No disponible.
Flu Activity No disponible.
METAR KSDM 210053Z 29007KT 10SM BKN022 16/10 A2987 RMK AO2 SLP112 T01610100

More Conditions Fewer Conditions

Presión 29.86 pul
Visibilidad 10.0 Millas
Nubes Muy nublado 2200 ft
Punto de rocío 52 ° F
Humedad 75%
Precipitaciones 0.00 pul
Espesor de la nieve No disponible.
UV 1 de una escala de 12
Polen No disponible.
Calidad del aire No disponible.
Flu Activity No disponible.
METAR KSDM 210053Z 29007KT 10SM BKN022 16/10 A2987 RMK AO2 SLP112 T01610100

More Conditions Fewer Conditions

10-Day Weather Forecast

Almanac

Astronomía

Apr. 20, 2015 Salida Puesta
Hora real
Crepúsculo civil
Crepúsculo náutico
Crepúsculo astronómico
Luna
Horas de luz
Horas de luz
Tomorrow will be .
, % of the Moon is Illuminated

Extremos de hoy

Máximos del país Bajas del país

Community

WunderPhotos

Upload Photos

1,815,274 ¡fotos cargadas!

WunderBlogs® & News

Nearby

Calidad del aire

  Calidad del aire Índice AQ Contaminante
Not available.

Grosos de nieve

Estación Profundido Altura

Actividad de terremotos

Ciudad Distance Mag. Tiempo y dato
Magnitud mínima muestra es 2,5.

Temperaturas de aguas costeras

Lugar Temperatura

Stations

Estaciones meteorológicas cercanas

Ubicación de la estación Temp. Vientos helados Punto de rocío Humedad Viento Precip. Alt Actualizado Tipo